createdAt,value
2023-05-19T00:02:21.130Z,99454.38
2023-05-19T00:04:49.993Z,99453.59
2023-05-19T00:07:21.698Z,99456.47
2023-05-19T00:09:49.505Z,99451.16
2023-05-19T00:12:16.933Z,99453.88
2023-05-19T00:14:44.780Z,99449.56
2023-05-19T00:17:12.185Z,99440.00
2023-05-19T00:19:39.538Z,99440.44
2023-05-19T00:22:06.633Z,99435.22
2023-05-19T00:24:34.618Z,99437.72
2023-05-19T00:27:01.634Z,99443.81
2023-05-19T00:29:29.583Z,99432.69
2023-05-19T00:31:57.047Z,99429.25
2023-05-19T00:34:24.594Z,99428.22
2023-05-19T00:36:51.940Z,99432.63
2023-05-19T00:39:19.221Z,99430.16
2023-05-19T00:41:46.545Z,99427.53
2023-05-19T00:44:15.054Z,99426.88
2023-05-19T00:46:42.109Z,99418.97
2023-05-19T00:49:09.562Z,99427.00
2023-05-19T00:51:37.283Z,99426.03
2023-05-19T00:54:08.175Z,99421.69
2023-05-19T00:56:35.655Z,99419.94
2023-05-19T00:59:03.546Z,99419.84
2023-05-19T01:01:32.555Z,99421.91
2023-05-19T01:04:01.234Z,99414.84
2023-05-19T01:06:29.696Z,99427.16
2023-05-19T01:08:57.451Z,99413.81
2023-05-19T01:11:24.416Z,99415.63
2023-05-19T01:13:51.943Z,99412.09
2023-05-19T01:16:32.310Z,99407.72
2023-05-19T01:19:50.860Z,99414.19
2023-05-19T01:23:05.873Z,99415.16
2023-05-19T01:26:07.217Z,99409.94
2023-05-19T01:29:17.803Z,99411.28
2023-05-19T01:31:50.621Z,99413.16
2023-05-19T01:34:20.559Z,99413.34
2023-05-19T01:36:51.187Z,99405.53
2023-05-19T01:39:20.041Z,99405.63
2023-05-19T01:41:48.528Z,99405.47
2023-05-19T01:44:16.430Z,99408.88
2023-05-19T01:46:44.331Z,99413.47
2023-05-19T01:49:12.270Z,99415.28
2023-05-19T01:51:41.220Z,99412.75
2023-05-19T01:54:08.267Z,99412.75
2023-05-19T01:57:06.638Z,99414.88
2023-05-19T02:00:16.862Z,99418.28
2023-05-19T02:03:23.433Z,99410.53
2023-05-19T02:06:39.852Z,99417.53
2023-05-19T02:09:34.502Z,99415.84
2023-05-19T02:12:11.302Z,99422.66
2023-05-19T02:14:51.203Z,99419.94
2023-05-19T02:17:20.661Z,99414.81
2023-05-19T02:19:48.305Z,99413.06
2023-05-19T02:22:15.468Z,99411.59
2023-05-19T02:24:44.438Z,99418.56
2023-05-19T02:27:11.629Z,99410.78
2023-05-19T02:29:39.105Z,99404.78
2023-05-19T02:32:07.041Z,99401.41
2023-05-19T02:34:34.452Z,99402.59
2023-05-19T02:37:02.151Z,99400.22
2023-05-19T02:39:34.998Z,99393.88
2023-05-19T02:42:02.071Z,99392.41
2023-05-19T02:44:29.428Z,99395.16
2023-05-19T02:46:56.472Z,99388.91
2023-05-19T02:49:23.807Z,99387.22
2023-05-19T02:51:50.891Z,99383.41
2023-05-19T02:54:18.370Z,99380.06
2023-05-19T02:56:45.418Z,99374.91
2023-05-19T02:59:12.838Z,99377.84
2023-05-19T03:01:40.596Z,99381.50
2023-05-19T03:04:08.002Z,99377.19
2023-05-19T03:06:35.160Z,99375.69
2023-05-19T03:09:02.510Z,99374.72
2023-05-19T03:11:30.935Z,99376.72
2023-05-19T03:13:59.078Z,99377.00
2023-05-19T03:16:28.174Z,99377.16
2023-05-19T03:18:56.144Z,99377.22
2023-05-19T03:21:23.346Z,99379.16
2023-05-19T03:23:50.714Z,99374.81
2023-05-19T03:26:17.725Z,99388.38
2023-05-19T03:28:44.997Z,99391.09
2023-05-19T03:31:12.131Z,99384.34
2023-05-19T03:33:39.691Z,99390.47
2023-05-19T03:36:07.367Z,99393.25
2023-05-19T03:38:34.733Z,99385.25
2023-05-19T03:41:01.783Z,99391.34
2023-05-19T03:43:29.031Z,99391.28
2023-05-19T03:45:56.945Z,99396.44
2023-05-19T03:48:24.677Z,99389.25
2023-05-19T03:50:51.761Z,99394.72
2023-05-19T03:53:19.194Z,99392.06
2023-05-19T03:55:46.340Z,99389.31
2023-05-19T03:58:14.728Z,99385.88
2023-05-19T04:00:42.989Z,99376.06
2023-05-19T04:03:10.399Z,99375.22
2023-05-19T04:05:37.765Z,99377.31
2023-05-19T04:08:05.679Z,99373.47
2023-05-19T04:10:32.858Z,99379.03
2023-05-19T04:13:00.789Z,99382.44
2023-05-19T04:15:28.054Z,99371.72
2023-05-19T04:17:56.314Z,99389.47
2023-05-19T04:20:23.435Z,99383.28
2023-05-19T04:22:50.879Z,99377.91
2023-05-19T04:25:20.082Z,99375.16
2023-05-19T04:27:48.710Z,99395.53
2023-05-19T04:30:22.455Z,99391.09
2023-05-19T04:32:51.005Z,99387.59
2023-05-19T04:35:18.135Z,99384.69
2023-05-19T04:37:48.629Z,99389.13
2023-05-19T04:40:16.032Z,99391.66
2023-05-19T04:42:46.107Z,99384.38
2023-05-19T04:45:14.299Z,99393.97
2023-05-19T04:47:42.416Z,99387.50
2023-05-19T04:50:11.339Z,99393.41
2023-05-19T04:52:38.803Z,99394.75
2023-05-19T04:55:06.620Z,99398.66
2023-05-19T04:57:34.176Z,99388.72
2023-05-19T05:00:01.409Z,99391.59
2023-05-19T05:02:29.038Z,99397.38
2023-05-19T05:04:56.829Z,99393.72
2023-05-19T05:07:24.382Z,99396.94
2023-05-19T05:09:52.270Z,99394.19
2023-05-19T05:12:21.859Z,99388.53
2023-05-19T05:14:49.386Z,99392.69
2023-05-19T05:17:17.225Z,99392.44
2023-05-19T05:19:45.177Z,99385.47
2023-05-19T05:22:13.335Z,99390.78
2023-05-19T05:24:41.236Z,99380.03
2023-05-19T05:27:10.270Z,99384.34
2023-05-19T05:29:37.681Z,99381.25
2023-05-19T05:32:09.443Z,99377.69
2023-05-19T05:34:38.291Z,99383.53
2023-05-19T05:37:05.918Z,99378.47
2023-05-19T05:39:33.028Z,99383.91
2023-05-19T05:42:01.123Z,99372.81
2023-05-19T05:44:28.338Z,99376.53
2023-05-19T05:46:57.464Z,99380.69
2023-05-19T05:49:25.006Z,99383.91
2023-05-19T05:52:04.927Z,99380.19
2023-05-19T05:54:33.910Z,99371.22
2023-05-19T05:57:02.612Z,99374.25
2023-05-19T05:59:31.797Z,99375.53
2023-05-19T06:02:01.652Z,99373.66
2023-05-19T06:04:30.602Z,99375.31
2023-05-19T06:07:01.269Z,99379.13
2023-05-19T06:09:29.869Z,99375.97
2023-05-19T06:12:00.232Z,99379.66
2023-05-19T06:14:27.338Z,99382.72
2023-05-19T06:16:54.893Z,99371.44
2023-05-19T06:19:22.255Z,99372.09
2023-05-19T06:21:49.693Z,99374.53
2023-05-19T06:24:16.634Z,99377.25
2023-05-19T06:26:44.095Z,99368.03
2023-05-19T06:29:11.444Z,99381.81
2023-05-19T06:31:38.711Z,99381.19
2023-05-19T06:34:05.770Z,99383.41
2023-05-19T06:36:33.230Z,99384.31
2023-05-19T06:39:01.946Z,99377.13
2023-05-19T06:41:30.058Z,99376.28
2023-05-19T06:43:57.111Z,99378.59
2023-05-19T06:46:24.563Z,99382.59
2023-05-19T06:48:51.693Z,99382.06
2023-05-19T06:51:21.771Z,99379.97
2023-05-19T06:53:49.604Z,99389.16
2023-05-19T06:56:18.113Z,99392.28
2023-05-19T06:58:46.076Z,99383.81
2023-05-19T07:01:13.612Z,99386.19
2023-05-19T07:03:41.080Z,99385.03
2023-05-19T07:06:08.770Z,99387.44
2023-05-19T07:08:37.360Z,99388.16
2023-05-19T07:11:05.098Z,99399.81
2023-05-19T07:13:33.011Z,99398.72
2023-05-19T07:16:00.396Z,99395.94
2023-05-19T07:18:27.552Z,99400.13
2023-05-19T07:20:54.975Z,99390.56
2023-05-19T07:23:22.078Z,99385.88
2023-05-19T07:25:50.033Z,99390.88
2023-05-19T07:28:17.258Z,99394.72
2023-05-19T07:30:44.778Z,99390.72
2023-05-19T07:33:12.079Z,99392.34
2023-05-19T07:35:40.177Z,99399.09
2023-05-19T07:38:07.568Z,99398.75
2023-05-19T07:40:35.030Z,99401.06
2023-05-19T07:43:02.222Z,99404.50
2023-05-19T07:45:29.482Z,99401.50
2023-05-19T07:47:56.528Z,99398.44
2023-05-19T07:50:23.871Z,99391.91
2023-05-19T07:52:51.007Z,99391.44
2023-05-19T07:55:19.295Z,99391.00
2023-05-19T07:57:46.356Z,99386.28
2023-05-19T08:00:14.440Z,99388.88
2023-05-19T08:02:41.991Z,99390.09
2023-05-19T08:05:10.592Z,99382.44
2023-05-19T08:07:37.695Z,99388.72
2023-05-19T08:10:05.391Z,99388.47
2023-05-19T08:12:32.542Z,99389.84
2023-05-19T08:15:01.423Z,99387.34
2023-05-19T08:17:28.825Z,99385.91
2023-05-19T08:19:56.920Z,99382.69
2023-05-19T08:22:24.057Z,99377.78
2023-05-19T08:24:51.925Z,99373.09
2023-05-19T08:27:18.937Z,99367.47
2023-05-19T08:29:46.467Z,99373.41
2023-05-19T08:32:14.947Z,99368.44
2023-05-19T08:34:42.483Z,99372.22
2023-05-19T08:37:09.853Z,99366.53
2023-05-19T08:39:37.242Z,99362.06
2023-05-19T08:42:04.859Z,99353.06
2023-05-19T08:44:32.521Z,99363.13
2023-05-19T08:47:08.032Z,99355.03
2023-05-19T08:49:44.341Z,99352.03
2023-05-19T08:52:33.474Z,99351.56
2023-05-19T08:55:21.823Z,99351.28
2023-05-19T08:57:50.873Z,99344.81
2023-05-19T09:00:20.014Z,99349.72
2023-05-19T09:03:00.966Z,99339.91
2023-05-19T09:05:39.661Z,99341.16
2023-05-19T09:08:06.754Z,99348.69
2023-05-19T09:10:34.305Z,99335.38
2023-05-19T09:13:04.292Z,99331.78
2023-05-19T09:15:34.237Z,99331.41
2023-05-19T09:18:17.495Z,99334.47
2023-05-19T09:20:47.554Z,99324.75
2023-05-19T09:23:16.818Z,99316.75
2023-05-19T09:25:50.258Z,99326.09
2023-05-19T09:28:26.273Z,99327.19
2023-05-19T09:31:01.489Z,99325.31
2023-05-19T09:33:29.607Z,99323.03
2023-05-19T09:35:57.613Z,99334.25
2023-05-19T09:38:26.480Z,99327.22
2023-05-19T09:40:59.959Z,99320.84
2023-05-19T09:43:33.716Z,99316.06
2023-05-19T09:46:10.672Z,99311.38
2023-05-19T09:48:39.203Z,99319.00
2023-05-19T09:51:10.960Z,99315.34
2023-05-19T09:53:39.102Z,99302.16
2023-05-19T09:56:09.918Z,99301.13
2023-05-19T09:58:37.878Z,99298.88
2023-05-19T10:01:06.543Z,99298.00
2023-05-19T10:03:35.241Z,99310.06
2023-05-19T10:06:05.183Z,99306.03
2023-05-19T10:08:34.388Z,99306.50
2023-05-19T10:11:03.197Z,99304.81
2023-05-19T10:13:32.172Z,99303.13
2023-05-19T10:16:00.766Z,99309.13
2023-05-19T10:18:29.827Z,99306.88
2023-05-19T10:20:58.199Z,99299.75
2023-05-19T10:23:26.264Z,99287.09
2023-05-19T10:25:59.660Z,99293.72
2023-05-19T10:28:37.271Z,99294.06
2023-05-19T10:31:11.685Z,99293.44
2023-05-19T10:34:01.230Z,99289.38
2023-05-19T10:36:55.991Z,99282.28
2023-05-19T10:39:31.991Z,99294.38
2023-05-19T10:42:25.318Z,99288.94
2023-05-19T10:45:21.103Z,99278.13
2023-05-19T10:47:51.942Z,99283.34
2023-05-19T10:50:20.996Z,99289.38
2023-05-19T10:52:56.305Z,99280.56
2023-05-19T10:55:46.987Z,99279.63
2023-05-19T10:58:14.284Z,99289.28
2023-05-19T11:00:44.430Z,99288.50
2023-05-19T11:03:24.549Z,99285.81
2023-05-19T11:05:52.467Z,99288.81
2023-05-19T11:08:33.685Z,99283.28
2023-05-19T11:11:17.481Z,99279.50
2023-05-19T11:13:55.310Z,99283.13
2023-05-19T11:16:31.407Z,99276.25
2023-05-19T11:19:02.164Z,99273.88
2023-05-19T11:21:52.588Z,99274.09
2023-05-19T11:24:50.700Z,99276.16
2023-05-19T11:27:20.598Z,99271.50
2023-05-19T11:29:49.405Z,99269.47
2023-05-19T11:32:18.507Z,99252.88
2023-05-19T11:34:46.133Z,99276.00
2023-05-19T11:37:13.581Z,99262.75
2023-05-19T11:39:41.846Z,99263.56
2023-05-19T11:42:11.981Z,99269.09
2023-05-19T11:44:41.245Z,99270.69
2023-05-19T11:47:08.939Z,99262.28
2023-05-19T11:49:36.541Z,99270.19
2023-05-19T11:52:05.260Z,99264.63
2023-05-19T11:54:36.598Z,99266.44
2023-05-19T11:57:04.280Z,99258.09
2023-05-19T11:59:36.691Z,99263.75
2023-05-19T12:02:13.990Z,99257.63
2023-05-19T12:04:41.591Z,99243.78
2023-05-19T12:07:11.025Z,99249.38
2023-05-19T12:09:38.845Z,99262.41
2023-05-19T12:12:06.329Z,99249.69
2023-05-19T12:14:34.537Z,99245.00
2023-05-19T12:17:14.707Z,99244.94
2023-05-19T12:19:45.468Z,99250.84
2023-05-19T12:22:13.354Z,99253.88
2023-05-19T12:24:42.855Z,99251.25
2023-05-19T12:27:28.594Z,99253.16
2023-05-19T12:29:57.411Z,99254.88
2023-05-19T12:32:31.517Z,99253.84
2023-05-19T12:34:59.240Z,99247.34
2023-05-19T12:37:33.411Z,99244.38
2023-05-19T12:40:02.373Z,99252.94
2023-05-19T12:42:35.074Z,99240.28
2023-05-19T12:45:06.192Z,99245.19
2023-05-19T12:47:36.933Z,99243.38
2023-05-19T12:50:10.125Z,99243.03
2023-05-19T12:52:53.457Z,99244.34
2023-05-19T12:55:22.229Z,99232.81
2023-05-19T12:57:54.800Z,99238.41
2023-05-19T13:00:32.409Z,99238.41
2023-05-19T13:03:07.793Z,99242.22
2023-05-19T13:05:43.671Z,99239.03
2023-05-19T13:08:15.075Z,99240.75
2023-05-19T13:10:44.652Z,99236.84
2023-05-19T13:13:12.726Z,99239.03
2023-05-19T13:15:43.934Z,99232.09
2023-05-19T13:18:13.321Z,99228.00
2023-05-19T13:20:43.760Z,99235.44
2023-05-19T13:23:12.372Z,99229.63
2023-05-19T13:25:41.285Z,99234.00
2023-05-19T13:28:09.139Z,99233.31
2023-05-19T13:30:39.111Z,99235.44
2023-05-19T13:33:06.826Z,99229.66
2023-05-19T13:35:37.629Z,99234.00
2023-05-19T13:38:06.854Z,99229.66
2023-05-19T13:40:35.247Z,99230.00
2023-05-19T13:43:04.156Z,99224.03
2023-05-19T13:45:31.741Z,99224.16
2023-05-19T13:47:58.864Z,99221.19
2023-05-19T13:50:26.608Z,99219.38
2023-05-19T13:52:53.966Z,99220.47
2023-05-19T13:55:21.615Z,99226.69
2023-05-19T13:57:49.327Z,99223.47
2023-05-19T14:00:18.410Z,99215.63
2023-05-19T14:02:45.641Z,99216.31
2023-05-19T14:05:13.173Z,99220.66
2023-05-19T14:07:40.382Z,99229.19
2023-05-19T14:10:08.417Z,99220.88
2023-05-19T14:12:49.458Z,99223.94
2023-05-19T14:15:23.852Z,99230.38
2023-05-19T14:17:50.987Z,99218.00
2023-05-19T14:20:18.550Z,99226.03
2023-05-19T14:22:45.466Z,99228.19
2023-05-19T14:25:12.699Z,99229.88
2023-05-19T14:27:42.376Z,99219.25
2023-05-19T14:30:10.292Z,99223.63
2023-05-19T14:32:37.425Z,99224.97
2023-05-19T14:35:06.104Z,99222.09
2023-05-19T14:37:33.025Z,99224.03
2023-05-19T14:40:00.403Z,99221.06
2023-05-19T14:42:27.628Z,99227.75
2023-05-19T14:44:54.945Z,99219.38
2023-05-19T14:47:22.300Z,99224.84
2023-05-19T14:49:49.795Z,99221.34
2023-05-19T14:52:17.853Z,99229.59
2023-05-19T14:54:45.524Z,99229.59
2023-05-19T14:57:13.216Z,99225.34
2023-05-19T14:59:40.726Z,99227.56
2023-05-19T15:02:07.916Z,99224.47
2023-05-19T15:04:35.226Z,99222.19
2023-05-19T15:09:33.604Z,99227.03
2023-05-19T15:12:03.328Z,99240.00
2023-05-19T15:14:31.159Z,99237.13
2023-05-19T15:16:59.276Z,99234.84
2023-05-19T15:19:26.911Z,99229.41
2023-05-19T15:21:54.330Z,99234.53
2023-05-19T15:24:21.716Z,99225.88
2023-05-19T15:26:48.805Z,99230.41
2023-05-19T15:29:16.501Z,99230.19
2023-05-19T15:31:43.892Z,99229.81
2023-05-19T15:34:11.325Z,99223.28
2023-05-19T15:36:38.558Z,99226.84
2023-05-19T15:39:06.647Z,99223.72
2023-05-19T15:41:33.997Z,99219.41
2023-05-19T15:44:06.734Z,99214.69
2023-05-19T15:46:35.677Z,99216.41
2023-05-19T15:49:04.197Z,99214.69
2023-05-19T15:51:31.701Z,99210.72
2023-05-19T15:53:59.131Z,99217.78
2023-05-19T15:56:26.538Z,99215.72
2023-05-19T15:58:55.989Z,99213.25
2023-05-19T16:01:23.762Z,99216.41
2023-05-19T16:03:51.210Z,99214.06
2023-05-19T16:06:18.955Z,99226.19
2023-05-19T16:08:46.371Z,99230.44
2023-05-19T16:11:14.511Z,99224.56
2023-05-19T16:13:42.013Z,99223.72
2023-05-19T16:16:09.377Z,99225.78
2023-05-19T16:18:37.091Z,99227.94
2023-05-19T16:21:04.512Z,99226.28
2023-05-19T16:23:32.477Z,99224.81
2023-05-19T16:25:59.580Z,99228.22
2023-05-19T16:28:28.032Z,99230.16
2023-05-19T16:31:01.465Z,99222.03
2023-05-19T16:33:30.077Z,99227.38
2023-05-19T16:36:00.010Z,99226.97
2023-05-19T16:38:30.503Z,99221.50
2023-05-19T16:40:59.486Z,99217.47
2023-05-19T16:43:27.988Z,99221.97
2023-05-19T16:45:55.045Z,99223.88
2023-05-19T16:48:22.404Z,99220.88
2023-05-19T16:50:49.702Z,99218.56
2023-05-19T16:53:17.468Z,99225.31
2023-05-19T16:55:44.583Z,99208.94
2023-05-19T16:58:11.941Z,99221.44
2023-05-19T17:00:39.001Z,99221.09
2023-05-19T17:03:06.843Z,99218.69
2023-05-19T17:05:34.052Z,99221.34
2023-05-19T17:08:01.504Z,99226.91
2023-05-19T17:10:28.854Z,99221.66
2023-05-19T17:12:56.244Z,99227.66
2023-05-19T17:15:23.293Z,99219.50
2023-05-19T17:17:50.620Z,99223.94
2023-05-19T17:20:17.747Z,99229.13
2023-05-19T17:22:45.297Z,99218.59
2023-05-19T17:25:12.692Z,99224.16
2023-05-19T17:27:40.468Z,99219.03
2023-05-19T17:30:09.351Z,99219.88
2023-05-19T17:32:39.468Z,99229.63
2023-05-19T17:35:07.663Z,99226.19
2023-05-19T17:37:35.203Z,99227.34
2023-05-19T17:40:05.707Z,99231.50
2023-05-19T17:42:33.507Z,99230.44
2023-05-19T17:45:00.725Z,99230.66
2023-05-19T17:47:28.286Z,99233.53
2023-05-19T17:49:55.625Z,99231.34
2023-05-19T17:52:24.020Z,99226.00
2023-05-19T17:54:51.761Z,99222.78
2023-05-19T17:57:22.717Z,99237.13
2023-05-19T17:59:50.511Z,99234.47
2023-05-19T18:02:18.656Z,99232.72
2023-05-19T18:04:46.528Z,99229.72
2023-05-19T18:07:14.478Z,99227.25
2023-05-19T18:09:46.594Z,99230.25
2023-05-19T18:12:14.301Z,99227.75
2023-05-19T18:14:41.622Z,99219.50
2023-05-19T18:17:09.184Z,99222.34
2023-05-19T18:19:36.395Z,99219.69
2023-05-19T18:22:03.867Z,99222.16
2023-05-19T18:24:31.412Z,99225.59
2023-05-19T18:26:59.281Z,99229.31
2023-05-19T18:29:26.426Z,99225.84
2023-05-19T18:31:54.026Z,99230.66
2023-05-19T18:34:21.381Z,99230.50
2023-05-19T18:36:48.730Z,99228.69
2023-05-19T18:39:15.908Z,99242.97
2023-05-19T18:41:43.848Z,99242.97
2023-05-19T18:44:11.925Z,99243.94
2023-05-19T18:46:39.754Z,99250.41
2023-05-19T18:49:07.131Z,99248.78
2023-05-19T18:51:36.118Z,99257.19
2023-05-19T18:54:03.498Z,99258.34
2023-05-19T18:56:33.412Z,99252.34
2023-05-19T18:59:00.599Z,99246.34
2023-05-19T19:01:28.121Z,99256.03
2023-05-19T19:03:55.264Z,99249.66
2023-05-19T19:06:23.414Z,99251.78
2023-05-19T19:08:50.713Z,99256.44
2023-05-19T19:11:18.032Z,99259.47
2023-05-19T19:13:45.195Z,99254.25
2023-05-19T19:16:12.654Z,99261.38
2023-05-19T19:18:40.126Z,99258.81
2023-05-19T19:21:07.556Z,99261.00
2023-05-19T19:23:34.727Z,99265.66
2023-05-19T19:26:02.478Z,99269.19
2023-05-19T19:28:29.911Z,99279.00
2023-05-19T19:30:57.772Z,99270.06
2023-05-19T19:33:24.906Z,99269.66
2023-05-19T19:35:52.607Z,99271.84
2023-05-19T19:38:19.888Z,99272.06
2023-05-19T19:40:47.303Z,99273.25
2023-05-19T19:43:14.408Z,99277.63
2023-05-19T19:45:42.214Z,99277.25
2023-05-19T19:48:09.482Z,99281.19
2023-05-19T19:50:37.113Z,99280.09
2023-05-19T19:53:04.431Z,99283.59
2023-05-19T19:55:32.193Z,99283.78
2023-05-19T19:58:00.163Z,99284.66
2023-05-19T20:00:27.719Z,99283.78
2023-05-19T20:03:05.020Z,99282.84
2023-05-19T20:05:33.566Z,99283.97
2023-05-19T20:08:00.775Z,99287.91
2023-05-19T20:10:28.487Z,99280.75
2023-05-19T20:12:56.019Z,99278.31
2023-05-19T20:15:23.425Z,99282.00
2023-05-19T20:17:50.930Z,99277.72
2023-05-19T20:20:18.426Z,99276.53
2023-05-19T20:22:46.611Z,99283.91
2023-05-19T20:25:14.215Z,99279.72
2023-05-19T20:27:41.438Z,99277.03
2023-05-19T20:30:09.602Z,99274.53
2023-05-19T20:32:36.842Z,99269.38
2023-05-19T20:35:04.913Z,99270.00
2023-05-19T20:37:32.173Z,99278.31
2023-05-19T20:39:59.654Z,99284.84
2023-05-19T20:42:26.980Z,99291.97
2023-05-19T20:44:54.384Z,99295.91
2023-05-19T20:47:21.701Z,99299.59
2023-05-19T20:49:49.311Z,99299.88
2023-05-19T20:52:17.045Z,99295.38
2023-05-19T20:54:46.511Z,99294.63
2023-05-19T20:57:14.407Z,99291.97
2023-05-19T20:59:42.254Z,99290.47
2023-05-19T21:02:09.915Z,99287.22
2023-05-19T21:04:46.360Z,99286.53
2023-05-19T21:07:13.558Z,99291.25
2023-05-19T21:09:43.012Z,99294.22
2023-05-19T21:12:16.723Z,99290.59
2023-05-19T21:14:44.843Z,99288.91
2023-05-19T21:17:14.368Z,99288.22
2023-05-19T21:19:44.736Z,99283.31
2023-05-19T21:22:12.213Z,99277.97
2023-05-19T21:24:40.195Z,99279.72
2023-05-19T21:27:08.488Z,99283.13
2023-05-19T21:29:37.213Z,99280.81
2023-05-19T21:32:05.432Z,99274.56
2023-05-19T21:34:33.942Z,99280.63
2023-05-19T21:37:01.271Z,99283.50
2023-05-19T21:39:28.676Z,99299.22
2023-05-19T21:41:56.277Z,99297.88
2023-05-19T21:44:25.268Z,99304.06
2023-05-19T21:46:52.613Z,99308.34
2023-05-19T21:49:20.909Z,99319.31
2023-05-19T21:51:48.364Z,99321.38
2023-05-19T21:54:15.986Z,99311.34
2023-05-19T21:56:43.030Z,99320.91
2023-05-19T21:59:12.248Z,99319.00
2023-05-19T22:01:39.436Z,99320.44
2023-05-19T22:04:07.126Z,99318.31
2023-05-19T22:06:34.854Z,99324.97
2023-05-19T22:09:02.674Z,99319.09
2023-05-19T22:11:31.507Z,99323.06
2023-05-19T22:14:00.770Z,99313.31
2023-05-19T22:16:28.066Z,99318.84
2023-05-19T22:18:56.749Z,99317.22
2023-05-19T22:21:24.431Z,99317.97
2023-05-19T22:23:52.985Z,99317.03
2023-05-19T22:26:20.067Z,99322.81
2023-05-19T22:28:49.256Z,99318.06
2023-05-19T22:31:17.798Z,99315.91
2023-05-19T22:33:45.640Z,99315.00
2023-05-19T22:36:13.578Z,99305.16
2023-05-19T22:38:41.491Z,99303.78
2023-05-19T22:41:08.677Z,99297.59
2023-05-19T22:43:36.122Z,99290.59
2023-05-19T22:46:03.776Z,99287.31
2023-05-19T22:48:36.249Z,99289.91
2023-05-19T22:51:03.800Z,99284.44
2023-05-19T22:53:31.658Z,99280.50
2023-05-19T22:55:59.525Z,99284.59
2023-05-19T22:58:28.421Z,99276.69
2023-05-19T23:00:55.551Z,99282.00
2023-05-19T23:03:23.002Z,99280.97
2023-05-19T23:05:50.468Z,99276.38
2023-05-19T23:08:18.894Z,99283.81
2023-05-19T23:10:46.348Z,99283.72
2023-05-19T23:13:16.779Z,99276.63
2023-05-19T23:15:44.322Z,99283.25
2023-05-19T23:18:11.867Z,99279.97
2023-05-19T23:20:40.511Z,99273.84
2023-05-19T23:23:08.307Z,99267.84
2023-05-19T23:25:35.833Z,99270.06
2023-05-19T23:28:03.686Z,99261.47
2023-05-19T23:30:31.690Z,99272.00
2023-05-19T23:32:59.230Z,99264.13
2023-05-19T23:35:26.626Z,99268.59
2023-05-19T23:37:54.162Z,99273.19
2023-05-19T23:40:21.708Z,99272.59
2023-05-19T23:42:49.194Z,99269.03
2023-05-19T23:45:16.355Z,99269.31
2023-05-19T23:47:43.862Z,99276.50
2023-05-19T23:50:12.180Z,99276.34
2023-05-19T23:52:40.852Z,99273.38
2023-05-19T23:55:09.884Z,99280.34
2023-05-19T23:57:39.090Z,99278.47
